Time;durP1;ratioP1;P1;durP2;ratioP2;P2;SDS_P1;SDS_P2;PMS_P1;PMS_P2;Temp;Humidity;BMP_temperature;BMP_pressure;BME280_temperature;BME280_humidity;BME280_pressure;Samples;Min_cycle;Max_cycle;Signal;HPM_P1;HPM_P2
2023/12/21 00:02:18;;;;;;;11.95;6.00;;;;;;;2.76;96.93;99596.63;4919217;29;20048;-72
2023/12/21 00:04:44;;;;;;;10.55;6.45;;;;;;;2.81;96.98;99580.22;4918423;29;20051;-73
2023/12/21 00:07:11;;;;;;;14.20;7.03;;;;;;;2.86;96.65;99565.53;4918497;29;20177;-73
2023/12/21 00:09:37;;;;;;;12.07;6.53;;;;;;;2.88;96.64;99554.69;4918402;29;20072;-73
2023/12/21 00:12:04;;;;;;;14.02;6.75;;;;;;;3.00;96.80;99549.28;4917397;29;20052;-73
2023/12/21 00:14:32;;;;;;;10.77;7.15;;;;;;;3.09;96.48;99544.16;4916692;29;20127;-73
2023/12/21 00:16:59;;;;;;;13.30;7.70;;;;;;;3.02;97.10;99540.28;4916670;29;20071;-72
2023/12/21 00:19:25;;;;;;;11.40;7.40;;;;;;;3.07;96.58;99524.69;4918360;29;20107;-72
2023/12/21 00:21:53;;;;;;;17.15;7.95;;;;;;;3.08;96.69;99518.34;4917280;29;20525;-74
2023/12/21 00:24:19;;;;;;;15.75;7.65;;;;;;;3.24;96.30;99505.50;4917334;29;20123;-73
2023/12/21 00:26:46;;;;;;;12.52;8.00;;;;;;;3.29;96.26;99511.38;4916637;29;20076;-73
2023/12/21 00:29:13;;;;;;;16.92;8.50;;;;;;;3.41;95.69;99512.22;4915263;29;20056;-73
2023/12/21 00:31:39;;;;;;;12.32;7.95;;;;;;;3.34;95.92;99498.44;4917240;29;20071;-72
2023/12/21 00:34:06;;;;;;;14.95;7.97;;;;;;;3.55;95.54;99499.44;4915793;29;20421;-73
2023/12/21 00:36:33;;;;;;;10.80;6.70;;;;;;;3.54;95.23;99484.31;4916813;29;20048;-74
2023/12/21 00:38:59;;;;;;;15.23;7.28;;;;;;;3.55;95.53;99477.97;4916792;29;20151;-72
2023/12/21 00:41:27;;;;;;;12.45;7.00;;;;;;;3.49;95.54;99462.41;4917643;29;20490;-72
2023/12/21 00:43:53;;;;;;;16.85;7.45;;;;;;;3.48;96.02;99452.66;4917239;29;20413;-73
2023/12/21 00:46:22;;;;;;;13.40;6.85;;;;;;;3.57;96.26;99468.00;4915769;29;20043;-73
2023/12/21 00:48:49;;;;;;;16.98;7.78;;;;;;;3.62;96.30;99456.06;4924173;29;20113;-73
2023/12/21 00:51:15;;;;;;;11.18;6.90;;;;;;;3.74;95.69;99438.97;4917292;29;20056;-73
2023/12/21 00:53:42;;;;;;;13.88;6.75;;;;;;;3.85;95.30;99447.03;4922944;29;20043;-74
2023/12/21 00:56:08;;;;;;;11.60;6.68;;;;;;;3.91;95.12;99445.66;4935559;29;20134;-73
2023/12/21 00:58:35;;;;;;;9.68;6.18;;;;;;;3.92;95.01;99437.47;4936326;29;20052;-73
2023/12/21 01:01:02;;;;;;;7.90;5.50;;;;;;;4.02;94.60;99413.44;4936677;29;20067;-73
2023/12/21 01:03:28;;;;;;;10.93;5.68;;;;;;;4.11;94.58;99412.69;4935028;29;20051;-72
2023/12/21 01:05:55;;;;;;;9.55;5.10;;;;;;;4.05;95.23;99408.69;4939676;29;20055;-73
2023/12/21 01:08:22;;;;;;;10.75;5.22;;;;;;;4.13;95.21;99414.28;4935361;29;20063;-73
2023/12/21 01:10:48;;;;;;;10.77;4.35;;;;;;;4.29;94.00;99419.22;4935131;29;20044;-73
2023/12/21 01:13:15;;;;;;;7.40;4.50;;;;;;;4.26;94.51;99373.00;4935509;29;20052;-74
2023/12/21 01:15:42;;;;;;;8.30;4.00;;;;;;;4.37;94.38;99399.78;4935893;29;20492;-73
2023/12/21 01:18:08;;;;;;;5.55;3.33;;;;;;;4.43;94.23;99396.59;4935888;29;20055;-73
2023/12/21 01:20:35;;;;;;;5.18;3.53;;;;;;;4.44;94.68;99385.72;4934908;29;20073;-74
2023/12/21 01:23:02;;;;;;;6.45;3.65;;;;;;;4.50;94.45;99395.09;4935237;29;20115;-72
2023/12/21 01:25:29;;;;;;;6.80;3.15;;;;;;;4.46;94.52;99377.53;4934234;29;20047;-74
2023/12/21 01:27:55;;;;;;;8.65;3.47;;;;;;;4.54;94.49;99383.09;4936550;29;20126;-73
2023/12/21 01:30:23;;;;;;;4.05;3.10;;;;;;;4.65;93.86;99383.03;4935538;29;20131;-73
2023/12/21 01:32:50;;;;;;;5.75;3.20;;;;;;;4.61;94.01;99370.03;4936157;29;20135;-73
2023/12/21 01:35:17;;;;;;;7.10;3.05;;;;;;;4.75;93.52;99390.31;4935790;29;20051;-73
2023/12/21 01:37:43;;;;;;;4.43;2.90;;;;;;;4.71;93.90;99382.53;4935037;29;20043;-73
2023/12/21 01:40:12;;;;;;;7.65;2.95;;;;;;;4.69;94.01;99357.66;4935415;29;20126;-73
2023/12/21 01:42:38;;;;;;;4.57;2.65;;;;;;;4.78;94.00;99371.28;4934616;29;20055;-73
2023/12/21 01:45:06;;;;;;;6.70;2.90;;;;;;;4.84;93.67;99371.56;4935595;29;20079;-72
2023/12/21 01:47:33;;;;;;;4.97;2.88;;;;;;;4.83;93.69;99347.53;4935358;29;20508;-73
2023/12/21 01:50:00;;;;;;;4.47;2.35;;;;;;;4.89;93.87;99347.00;4934425;29;20058;-73
2023/12/21 01:52:28;;;;;;;3.85;2.40;;;;;;;4.93;93.10;99357.38;4935132;29;20047;-73
2023/12/21 01:54:56;;;;;;;5.10;2.50;;;;;;;4.95;93.73;99341.97;4919330;29;20055;-74
2023/12/21 01:57:23;;;;;;;6.90;2.25;;;;;;;4.86;94.16;99339.19;4916437;29;20126;-73
2023/12/21 01:59:51;;;;;;;2.42;1.90;;;;;;;4.99;93.75;99331.81;4916178;29;20064;-73
2023/12/21 02:02:17;;;;;;;2.97;2.22;;;;;;;4.96;93.98;99322.19;4915867;29;20056;-72
2023/12/21 02:04:44;;;;;;;2.80;2.28;;;;;;;5.01;94.02;99316.41;4916796;29;20079;-73
2023/12/21 02:07:23;;;;;;;5.38;1.98;;;;;;;5.04;93.85;99321.50;4917544;29;20052;-73
2023/12/21 02:09:50;;;;;;;3.03;2.05;;;;;;;5.00;93.87;99314.72;4917302;29;20131;-73
2023/12/21 02:12:16;;;;;;;4.47;2.05;;;;;;;5.06;93.72;99295.38;4917161;29;20473;-72
2023/12/21 02:14:43;;;;;;;4.07;2.03;;;;;;;5.04;94.29;99312.59;4916624;29;20048;-73
2023/12/21 02:17:13;;;;;;;4.15;1.90;;;;;;;5.05;94.57;99300.84;4916923;29;20103;-72
2023/12/21 02:19:41;;;;;;;2.47;1.55;;;;;;;5.18;94.17;99298.81;4917100;29;20107;-72
2023/12/21 02:22:10;;;;;;;3.13;2.03;;;;;;;5.09;94.56;99292.41;4917684;29;20072;-73
2023/12/21 02:24:37;;;;;;;2.53;1.70;;;;;;;5.19;94.09;99279.84;4916878;29;20489;-72
2023/12/21 02:27:04;;;;;;;2.20;1.77;;;;;;;5.12;94.36;99272.47;4918221;29;20119;-72
2023/12/21 02:29:31;;;;;;;2.08;1.60;;;;;;;5.12;94.37;99267.94;4916850;29;20067;-70
2023/12/21 02:31:57;;;;;;;1.98;1.73;;;;;;;5.18;94.23;99275.47;4918798;29;20351;-73
2023/12/21 02:34:24;;;;;;;1.73;1.48;;;;;;;5.25;94.18;99270.41;4917361;29;20052;-73
2023/12/21 02:36:50;;;;;;;3.08;1.55;;;;;;;5.23;94.17;99275.03;4916849;29;20056;-74
2023/12/21 02:39:17;;;;;;;1.98;1.60;;;;;;;5.20;94.35;99273.47;4917015;29;20088;-75
2023/12/21 02:41:43;;;;;;;3.28;1.70;;;;;;;5.22;94.52;99258.06;4917390;29;20108;-73
2023/12/21 02:44:10;;;;;;;1.55;1.20;;;;;;;5.21;94.48;99264.41;4917783;29;20497;-74
2023/12/21 02:46:37;;;;;;;2.53;1.48;;;;;;;5.19;94.63;99266.41;4917930;29;20055;-72
2023/12/21 02:49:04;;;;;;;2.83;1.50;;;;;;;5.32;94.62;99252.69;4918556;29;20068;-74
2023/12/21 02:51:31;;;;;;;2.80;1.35;;;;;;;5.34;94.29;99256.13;4919857;29;20477;-73
2023/12/21 02:53:57;;;;;;;1.50;1.30;;;;;;;5.30;94.60;99265.44;4931785;29;20563;-73
2023/12/21 02:56:25;;;;;;;2.47;1.38;;;;;;;5.37;94.50;99252.31;4941812;29;20051;-71
2023/12/21 02:58:51;;;;;;;1.52;1.38;;;;;;;5.38;94.37;99241.41;4940574;29;20134;-73
2023/12/21 03:01:18;;;;;;;2.08;1.48;;;;;;;5.32;94.84;99227.66;4940813;29;20080;-74
2023/12/21 03:03:45;;;;;;;1.58;1.15;;;;;;;5.41;94.43;99230.34;4940893;29;20047;-74
2023/12/21 03:06:11;;;;;;;1.45;1.20;;;;;;;5.33;95.12;99223.97;4940728;29;20139;-74
2023/12/21 03:08:41;;;;;;;1.85;1.20;;;;;;;5.31;95.43;99220.59;4940384;29;20111;-74
2023/12/21 03:11:08;;;;;;;1.10;1.00;;;;;;;5.37;95.04;99220.88;4941437;29;20469;-74
2023/12/21 03:13:34;;;;;;;2.10;1.15;;;;;;;5.37;95.17;99214.66;4940253;29;20048;-73
2023/12/21 03:16:07;;;;;;;1.85;1.20;;;;;;;5.40;94.70;99222.44;4940265;29;20056;-72
2023/12/21 03:18:34;;;;;;;1.45;1.35;;;;;;;5.45;94.79;99214.81;4938183;29;20552;-74
2023/12/21 03:21:00;;;;;;;4.53;1.60;;;;;;;5.45;95.30;99212.13;4939974;29;20056;-74
2023/12/21 03:23:27;;;;;;;2.22;1.27;;;;;;;5.47;94.92;99210.13;4939481;29;20055;-74
2023/12/21 03:25:54;;;;;;;1.95;1.30;;;;;;;5.55;94.71;99213.84;4938305;29;20043;-74
2023/12/21 03:28:20;;;;;;;1.50;1.30;;;;;;;5.44;95.35;99207.75;4938564;29;20059;-72
2023/12/21 03:30:47;;;;;;;4.95;1.75;;;;;;;5.50;95.06;99208.00;4937070;29;20047;-74
2023/12/21 03:33:14;;;;;;;3.78;1.50;;;;;;;5.50;94.81;99197.25;4938453;29;20059;-72
2023/12/21 03:35:40;;;;;;;2.92;1.65;;;;;;;5.58;95.28;99199.25;4938427;29;20055;-71
2023/12/21 03:38:07;;;;;;;3.47;1.90;;;;;;;5.52;95.12;99206.06;4936335;29;20047;-74
2023/12/21 03:40:33;;;;;;;1.95;1.58;;;;;;;5.55;95.28;99199.53;4937300;29;20441;-72
2023/12/21 03:43:00;;;;;;;2.22;1.80;;;;;;;5.62;95.29;99199.84;4939676;29;20062;-72
2023/12/21 03:45:29;;;;;;;3.55;2.13;;;;;;;5.57;95.60;99194.84;4938894;29;20080;-72
2023/12/21 03:47:55;;;;;;;6.18;2.10;;;;;;;5.60;95.56;99197.25;4939081;29;20055;-72
2023/12/21 03:50:22;;;;;;;4.25;2.15;;;;;;;5.64;95.28;99190.63;4937674;29;20062;-73
2023/12/21 03:52:48;;;;;;;2.72;1.70;;;;;;;5.72;95.08;99190.75;4938096;29;20489;-75
2023/12/21 03:55:15;;;;;;;2.42;1.77;;;;;;;5.81;94.29;99184.53;4938345;29;20052;-74
2023/12/21 03:57:42;;;;;;;4.10;1.88;;;;;;;5.76;94.68;99175.16;4937994;29;20139;-74
2023/12/21 04:00:09;;;;;;;2.78;2.13;;;;;;;5.76;95.00;99181.41;4938220;29;20051;-74
2023/12/21 04:02:36;;;;;;;2.55;1.95;;;;;;;5.73;95.23;99175.47;4938726;29;20055;-74
2023/12/21 04:05:04;;;;;;;2.63;2.25;;;;;;;5.70;95.48;99164.97;4937387;29;20107;-73
2023/12/21 04:07:30;;;;;;;2.42;2.20;;;;;;;5.69;95.48;99158.75;4937021;29;20051;-74
2023/12/21 04:09:57;;;;;;;2.20;1.90;;;;;;;5.81;95.70;99163.00;4938496;29;20044;-74
2023/12/21 04:12:23;;;;;;;4.82;2.47;;;;;;;5.76;95.36;99151.81;4936848;29;20051;-73
2023/12/21 04:14:50;;;;;;;3.72;2.10;;;;;;;5.88;95.07;99157.03;4937170;29;20126;-73
2023/12/21 04:17:17;;;;;;;6.03;2.00;;;;;;;5.86;95.16;99154.47;4936726;29;20102;-74
2023/12/21 04:19:43;;;;;;;3.03;1.80;;;;;;;5.94;95.00;99154.63;4938220;29;20113;-74
2023/12/21 04:22:10;;;;;;;4.90;2.25;;;;;;;5.89;95.36;99150.66;4937710;29;20062;-73
2023/12/21 04:24:37;;;;;;;2.88;1.90;;;;;;;5.86;95.27;99154.47;4938641;29;20154;-73
2023/12/21 04:27:05;;;;;;;2.72;2.20;;;;;;;5.98;95.42;99152.47;4938954;29;20441;-73
2023/12/21 04:29:31;;;;;;;2.10;1.90;;;;;;;5.97;95.13;99150.78;4938092;29;20511;-71
2023/12/21 04:31:58;;;;;;;3.72;2.10;;;;;;;5.94;95.37;99151.06;4939008;29;20119;-74
2023/12/21 04:34:25;;;;;;;2.80;2.30;;;;;;;6.02;95.38;99146.66;4937918;29;20055;-73
2023/12/21 04:36:51;;;;;;;3.00;2.20;;;;;;;6.10;94.74;99151.34;4938446;29;20056;-74
2023/12/21 04:39:18;;;;;;;2.72;1.75;;;;;;;6.08;95.01;99156.03;4937608;29;20052;-74
2023/12/21 04:41:44;;;;;;;3.45;2.30;;;;;;;6.08;95.08;99137.19;4937602;29;20597;-74
2023/12/21 04:44:11;;;;;;;3.30;2.53;;;;;;;6.13;94.75;99134.88;4937366;29;20055;-74
2023/12/21 04:46:37;;;;;;;3.63;2.33;;;;;;;6.06;95.09;99133.75;4935462;29;20063;-74
2023/12/21 04:49:04;;;;;;;3.67;2.15;;;;;;;6.18;94.67;99137.16;4937366;29;20059;-74
2023/12/21 04:51:31;;;;;;;3.50;2.60;;;;;;;6.23;94.39;99138.38;4938346;29;20048;-74
2023/12/21 04:53:57;;;;;;;2.80;2.20;;;;;;;6.23;94.56;99143.78;4937895;29;20051;-73
2023/12/21 04:56:24;;;;;;;3.28;2.30;;;;;;;6.27;93.85;99131.72;4937835;29;20057;-73
2023/12/21 04:58:51;;;;;;;3.42;2.15;;;;;;;6.26;94.19;99139.94;4935410;29;20082;-73
2023/12/21 05:01:20;;;;;;;6.53;2.38;;;;;;;6.27;94.35;99137.13;4936788;29;20051;-73
2023/12/21 05:03:47;;;;;;;2.28;2.08;;;;;;;6.29;94.05;99129.72;4935657;29;20481;-74
2023/12/21 05:06:14;;;;;;;2.00;1.75;;;;;;;6.33;94.12;99139.19;4937709;29;20056;-74
2023/12/21 05:08:40;;;;;;;2.33;1.90;;;;;;;6.37;93.96;99142.47;4937874;29;20079;-73
2023/12/21 05:11:07;;;;;;;2.92;1.48;;;;;;;6.36;93.92;99133.53;4938190;29;20516;-73
2023/12/21 05:13:33;;;;;;;4.63;1.63;;;;;;;6.41;93.78;99133.94;4937542;29;20055;-74
2023/12/21 05:16:00;;;;;;;2.25;1.90;;;;;;;6.32;94.24;99129.44;4939163;29;20066;-73
2023/12/21 05:18:27;;;;;;;2.13;1.83;;;;;;;6.43;94.45;99121.16;4937689;29;20075;-74
2023/12/21 05:20:53;;;;;;;2.10;1.70;;;;;;;6.40;94.28;99118.78;4937594;29;20051;-73
2023/12/21 05:23:20;;;;;;;2.55;1.50;;;;;;;6.45;94.05;99117.50;4937615;29;20044;-74
2023/12/21 05:25:46;;;;;;;5.45;1.83;;;;;;;6.35;94.50;99101.34;4936354;29;20461;-73
2023/12/21 05:28:13;;;;;;;4.10;1.73;;;;;;;6.29;94.70;99110.88;4935309;29;20456;-74
2023/12/21 05:30:40;;;;;;;1.85;1.50;;;;;;;6.43;94.33;99094.22;4934691;29;20044;-74
2023/12/21 05:33:08;;;;;;;1.88;1.30;;;;;;;6.37;94.50;99084.06;4935555;29;20043;-73
2023/12/21 05:35:35;;;;;;;1.58;1.20;;;;;;;6.52;93.83;99081.72;4935169;29;20048;-73
2023/12/21 05:38:02;;;;;;;3.80;1.30;;;;;;;6.57;93.67;99073.19;4935777;29;20054;-71
2023/12/21 05:40:28;;;;;;;2.53;1.30;;;;;;;6.55;93.46;99064.41;4935355;29;20106;-73
2023/12/21 05:42:55;;;;;;;2.00;1.10;;;;;;;6.50;93.97;99072.09;4935453;29;20044;-72
2023/12/21 05:45:22;;;;;;;1.00;1.00;;;;;;;6.47;93.95;99061.63;4936532;29;20066;-72
2023/12/21 05:47:48;;;;;;;1.20;1.05;;;;;;;6.51;93.92;99061.16;4935709;29;20102;-72
2023/12/21 05:50:15;;;;;;;2.17;1.23;;;;;;;6.59;93.65;99063.09;4935629;29;20059;-72
2023/12/21 05:52:41;;;;;;;2.00;1.10;;;;;;;6.58;94.00;99064.09;4935811;28;20043;-72
2023/12/21 05:55:14;;;;;;;2.08;1.35;;;;;;;6.61;93.27;99058.41;4917647;29;20048;-73
2023/12/21 05:57:43;;;;;;;2.58;1.13;;;;;;;6.55;94.02;99056.34;4917921;29;20079;-72
2023/12/21 06:00:11;;;;;;;1.23;1.10;;;;;;;6.60;93.60;99046.78;4918752;29;20436;-73
2023/12/21 06:02:38;;;;;;;1.73;1.23;;;;;;;6.58;93.89;99045.25;4916317;29;20048;-73
2023/12/21 06:05:05;;;;;;;1.17;1.08;;;;;;;6.48;93.89;99037.22;4916900;29;20056;-73
2023/12/21 06:07:32;;;;;;;1.50;1.40;;;;;;;6.38;95.07;99031.91;4917867;29;20107;-71
2023/12/21 06:09:59;;;;;;;4.05;1.13;;;;;;;6.54;94.54;99014.22;4917717;29;20060;-73
2023/12/21 06:12:26;;;;;;;3.10;1.33;;;;;;;6.56;94.02;99012.25;4916220;29;20044;-74
2023/12/21 06:14:53;;;;;;;1.73;1.20;;;;;;;6.55;94.16;99006.00;4917312;29;20048;-74
2023/12/21 06:17:20;;;;;;;1.25;1.10;;;;;;;6.61;93.96;99020.69;4916951;29;20056;-72
2023/12/21 06:19:47;;;;;;;1.77;1.30;;;;;;;6.56;94.36;99007.69;4916822;29;20048;-72
2023/12/21 06:22:14;;;;;;;3.58;1.67;;;;;;;6.57;94.44;99004.00;4917538;29;20178;-72
2023/12/21 06:24:41;;;;;;;3.00;1.23;;;;;;;6.69;93.53;99001.94;4916995;29;20056;-73
2023/12/21 06:27:07;;;;;;;1.52;1.23;;;;;;;6.66;93.91;98994.16;4916360;29;20048;-72
2023/12/21 06:29:34;;;;;;;2.15;1.55;;;;;;;6.54;94.38;98992.66;4916735;29;20111;-73
2023/12/21 06:32:00;;;;;;;1.30;1.20;;;;;;;6.65;93.96;98984.38;4917479;29;20052;-73
2023/12/21 06:34:27;;;;;;;3.40;1.20;;;;;;;6.57;94.30;98979.75;4917007;29;20127;-73
2023/12/21 06:36:54;;;;;;;2.20;1.38;;;;;;;6.60;94.50;98975.91;4916552;29;20520;-73
2023/12/21 06:39:20;;;;;;;1.35;1.10;;;;;;;6.58;94.53;98977.91;4916471;29;20106;-73
2023/12/21 06:41:47;;;;;;;1.58;1.25;;;;;;;6.56;94.39;98958.38;4917015;29;20076;-73
2023/12/21 06:44:14;;;;;;;2.72;1.33;;;;;;;6.59;94.10;98955.34;4916843;29;20514;-73
2023/12/21 06:46:40;;;;;;;2.70;1.90;;;;;;;6.55;94.54;98962.06;4916219;29;20052;-73
2023/12/21 06:49:11;;;;;;;3.13;1.63;;;;;;;6.48;95.14;98947.50;4917234;29;20115;-73
2023/12/21 06:51:38;;;;;;;1.75;1.60;;;;;;;6.32;95.58;98945.47;4916634;29;20509;-73
2023/12/21 06:54:06;;;;;;;2.92;1.90;;;;;;;6.38;95.22;98928.72;4926430;29;20480;-73
2023/12/21 06:56:32;;;;;;;4.03;2.80;;;;;;;6.34;95.40;98922.78;4935555;29;20048;-72
2023/12/21 06:59:02;;;;;;;3.63;2.70;;;;;;;6.34;95.34;98930.84;4934037;29;20051;-72
2023/12/21 07:01:31;;;;;;;3.95;2.35;;;;;;;6.30;95.18;98913.31;4934969;29;20106;-73
2023/12/21 07:03:58;;;;;;;5.22;2.50;;;;;;;6.26;95.46;98908.38;4934596;29;20067;-73
2023/12/21 07:06:27;;;;;;;2.08;1.88;;;;;;;6.28;94.77;98915.31;4933120;29;20074;-72
2023/12/21 07:08:54;;;;;;;4.03;2.17;;;;;;;6.23;95.14;98898.78;4934674;29;20094;-72
2023/12/21 07:11:21;;;;;;;3.22;1.92;;;;;;;6.12;94.64;98891.75;4932966;29;20462;-72
2023/12/21 07:13:48;;;;;;;2.60;1.88;;;;;;;6.03;95.17;98891.84;4933619;29;20043;-72
2023/12/21 07:16:15;;;;;;;2.22;1.80;;;;;;;6.09;95.08;98877.78;4934096;29;20504;-72
2023/12/21 07:18:41;;;;;;;3.40;1.77;;;;;;;6.01;94.44;98872.31;4934084;29;20505;-72
2023/12/21 07:21:08;;;;;;;2.78;1.90;;;;;;;6.01;95.13;98872.31;4933649;29;20548;-72
2023/12/21 07:23:35;;;;;;;4.57;1.92;;;;;;;5.94;94.84;98861.28;4934040;29;20043;-72
2023/12/21 07:26:01;;;;;;;2.90;1.95;;;;;;;5.95;95.00;98857.59;4934392;29;20059;-72
2023/12/21 07:28:28;;;;;;;3.97;2.28;;;;;;;5.81;95.56;98847.38;4933655;29;20106;-74
2023/12/21 07:30:55;;;;;;;3.92;1.90;;;;;;;5.88;95.78;98845.75;4933076;29;20055;-73
2023/12/21 07:33:22;;;;;;;1.50;1.40;;;;;;;5.90;95.50;98840.25;4934500;29;20080;-74
2023/12/21 07:35:49;;;;;;;2.72;1.98;;;;;;;5.89;95.74;98825.94;4933868;29;20051;-73
2023/12/21 07:38:16;;;;;;;2.72;1.80;;;;;;;5.84;95.58;98806.69;4936852;29;20420;-72
2023/12/21 07:40:44;;;;;;;2.22;1.70;;;;;;;5.88;95.36;98796.47;4937622;29;20118;-73
2023/12/21 07:43:11;;;;;;;1.95;1.73;;;;;;;5.85;95.64;98793.09;4936910;29;20078;-72
2023/12/21 07:45:38;;;;;;;3.28;1.75;;;;;;;5.95;95.28;98781.41;4936764;29;20107;-73
2023/12/21 07:48:05;;;;;;;2.75;1.90;;;;;;;5.90;95.49;98783.72;4937898;29;20205;-73
2023/12/21 07:50:32;;;;;;;2.60;1.95;;;;;;;5.84;95.66;98771.72;4936932;29;20134;-70
2023/12/21 07:52:58;;;;;;;9.80;2.03;;;;;;;5.89;95.95;98771.25;4936686;29;20466;-72
2023/12/21 07:55:25;;;;;;;4.63;1.88;;;;;;;5.84;95.68;98758.28;4918283;29;20068;-72
2023/12/21 07:57:52;;;;;;;2.10;1.90;;;;;;;5.90;95.70;98746.06;4918704;29;21485;-74
2023/12/21 08:00:19;;;;;;;3.33;1.85;;;;;;;5.96;95.09;98734.66;4918545;29;20048;-75
2023/12/21 08:02:45;;;;;;;3.58;1.77;;;;;;;5.98;95.05;98728.16;4918091;29;20047;-73
2023/12/21 08:05:13;;;;;;;1.58;1.48;;;;;;;5.98;94.60;98720.06;4917586;29;20052;-74
2023/12/21 08:07:40;;;;;;;3.10;1.63;;;;;;;5.96;94.92;98713.13;4917772;29;20048;-74
2023/12/21 08:10:08;;;;;;;2.28;1.60;;;;;;;5.97;94.76;98695.97;4917692;29;20078;-75
2023/12/21 08:12:35;;;;;;;1.73;1.40;;;;;;;5.94;95.38;98697.16;4917538;29;20055;-75
2023/12/21 08:15:03;;;;;;;1.70;1.50;;;;;;;6.04;94.55;98683.59;4918205;29;20048;-74
2023/12/21 08:17:30;;;;;;;5.05;1.70;;;;;;;6.09;94.22;98676.75;4918560;29;20039;-74
2023/12/21 08:19:57;;;;;;;4.78;1.45;;;;;;;6.01;94.62;98671.31;4918993;29;20075;-74
2023/12/21 08:22:24;;;;;;;1.42;1.33;;;;;;;6.03;94.36;98650.47;4918744;29;20052;-73
2023/12/21 08:24:56;;;;;;;2.95;1.75;;;;;;;6.00;94.73;98647.25;4918504;29;20254;-74
2023/12/21 08:27:23;;;;;;;2.28;1.20;;;;;;;5.99;94.59;98642.88;4918851;29;20059;-73
2023/12/21 08:29:51;;;;;;;3.20;1.40;;;;;;;6.15;94.24;98626.81;4919549;29;20048;-73
2023/12/21 08:32:21;;;;;;;1.38;0.98;;;;;;;6.10;94.30;98626.47;4918641;29;20493;-75
2023/12/21 08:34:47;;;;;;;2.15;1.08;;;;;;;6.08;94.13;98617.72;4918634;29;20099;-72
2023/12/21 08:37:14;;;;;;;1.48;0.95;;;;;;;6.12;94.19;98611.84;4919622;29;20440;-74
2023/12/21 08:39:41;;;;;;;0.80;0.80;;;;;;;6.08;94.31;98604.25;4917853;29;20080;-74
2023/12/21 08:42:10;;;;;;;1.33;1.10;;;;;;;6.02;94.74;98589.56;4918277;29;20084;-73
2023/12/21 08:44:40;;;;;;;1.48;0.98;;;;;;;6.02;94.59;98589.56;4917369;29;20052;-73
2023/12/21 08:47:06;;;;;;;1.75;1.15;;;;;;;5.95;95.03;98591.19;4916651;29;20067;-74
2023/12/21 08:49:33;;;;;;;3.13;0.80;;;;;;;6.05;95.16;98575.78;4916112;29;20047;-73
2023/12/21 08:52:00;;;;;;;3.13;1.17;;;;;;;6.07;94.83;98565.72;4917237;29;20062;-73
2023/12/21 08:54:27;;;;;;;1.13;0.70;;;;;;;6.17;94.18;98559.38;4930316;29;20044;-73
2023/12/21 08:56:54;;;;;;;0.80;0.70;;;;;;;6.09;95.22;98554.78;4937095;29;20130;-73
2023/12/21 08:59:21;;;;;;;3.53;0.63;;;;;;;6.10;95.05;98548.41;4936948;29;20055;-73
2023/12/21 09:01:48;;;;;;;0.98;0.60;;;;;;;6.06;94.58;98536.25;4935603;29;20051;-73
2023/12/21 09:04:15;;;;;;;0.50;0.50;;;;;;;6.10;94.89;98537.63;4935458;29;20150;-73
2023/12/21 09:06:42;;;;;;;4.95;0.45;;;;;;;6.10;94.77;98533.09;4936212;29;20051;-73
2023/12/21 09:09:09;;;;;;;3.05;0.55;;;;;;;6.06;94.99;98517.41;4936413;29;20100;-74
2023/12/21 09:11:35;;;;;;;0.80;0.60;;;;;;;6.03;94.89;98515.06;4936595;29;20103;-73
2023/12/21 09:14:02;;;;;;;0.90;0.70;;;;;;;6.07;94.86;98497.56;4937413;29;20044;-71
2023/12/21 09:16:29;;;;;;;0.68;0.55;;;;;;;6.00;95.39;98486.63;4935056;29;20081;-74
2023/12/21 09:18:56;;;;;;;1.10;0.50;;;;;;;6.08;94.86;98491.22;4936411;29;20217;-72
2023/12/21 09:21:22;;;;;;;3.38;1.40;;;;;;;6.19;94.88;98488.22;4937063;29;20052;-74
2023/12/21 09:23:49;;;;;;;4.00;0.80;;;;;;;6.19;94.38;98482.00;4936495;29;20047;-73
2023/12/21 09:26:16;;;;;;;0.77;0.50;;;;;;;6.08;94.98;98467.00;4936434;29;20119;-72
2023/12/21 09:28:42;;;;;;;1.95;0.60;;;;;;;6.14;94.85;98458.25;4936130;29;20579;-72
2023/12/21 09:31:09;;;;;;;2.95;0.50;;;;;;;6.23;94.22;98451.03;4935937;29;20052;-72
2023/12/21 09:33:38;;;;;;;1.40;0.70;;;;;;;6.28;94.34;98460.31;4936115;29;20104;-73
2023/12/21 09:36:06;;;;;;;1.35;0.60;;;;;;;6.30;94.10;98455.63;4936121;29;20055;-73
2023/12/21 09:38:32;;;;;;;1.15;0.60;;;;;;;6.27;94.13;98447.88;4936282;29;20055;-69
2023/12/21 09:40:59;;;;;;;0.68;0.50;;;;;;;6.39;93.42;98445.72;4936590;29;20055;-73
2023/12/21 09:43:27;;;;;;;1.35;0.60;;;;;;;6.34;93.89;98432.72;4938665;29;20044;-72
2023/12/21 09:45:56;;;;;;;0.50;0.40;;;;;;;6.35;95.03;98417.41;4937104;29;20044;-73
2023/12/21 09:48:25;;;;;;;0.50;0.45;;;;;;;6.40;93.97;98405.16;4935758;29;20420;-73
2023/12/21 09:50:52;;;;;;;2.70;0.40;;;;;;;6.33;94.16;98385.28;4936226;29;20118;-73
2023/12/21 09:53:22;;;;;;;3.30;0.47;;;;;;;6.33;94.47;98406.81;4932224;29;20051;-72
2023/12/21 09:55:50;;;;;;;5.57;2.10;;;;;;;6.36;94.32;98382.28;4916932;29;20043;-73
2023/12/21 09:58:18;;;;;;;5.13;2.40;;;;;;;6.37;94.45;98375.88;4917925;29;20453;-74
2023/12/21 10:00:45;;;;;;;1.50;0.90;;;;;;;6.52;93.81;98376.03;4919849;29;20131;-73
2023/12/21 10:03:12;;;;;;;5.03;0.65;;;;;;;6.54;94.00;98378.56;4918096;29;20083;-73
2023/12/21 10:05:40;;;;;;;0.40;0.40;;;;;;;6.56;93.53;98355.03;4918404;29;20127;-72
2023/12/21 10:08:08;;;;;;;0.70;0.50;;;;;;;6.53;93.69;98350.78;4911016;29;20143;-74
2023/12/21 10:10:37;;;;;;;2.38;0.65;;;;;;;6.48;93.47;98320.84;4945813;29;20139;-73
2023/12/21 10:13:04;;;;;;;0.40;0.40;;;;;;;6.46;94.11;98316.66;4918233;29;20111;-72
2023/12/21 10:15:34;;;;;;;5.03;0.50;;;;;;;6.43;94.62;98307.03;4918062;29;20048;-72
2023/12/21 10:18:04;;;;;;;0.75;0.40;;;;;;;6.47;94.20;98296.78;4917032;29;20079;-72
2023/12/21 10:20:30;;;;;;;0.68;0.30;;;;;;;6.58;94.14;98312.59;4915866;29;20074;-72
2023/12/21 10:22:58;;;;;;;0.60;0.32;;;;;;;6.55;93.63;98289.53;4917495;29;20557;-72
2023/12/21 10:25:26;;;;;;;1.90;0.68;;;;;;;6.55;93.66;98275.22;4917819;29;20084;-73
2023/12/21 10:27:54;;;;;;;1.02;0.40;;;;;;;6.50;94.10;98266.81;4916121;29;20051;-72
2023/12/21 10:30:24;;;;;;;0.65;0.30;;;;;;;6.43;94.84;98251.31;4915894;29;20052;-71
2023/12/21 10:32:55;;;;;;;2.10;0.70;;;;;;;6.59;94.16;98252.31;4917253;29;20052;-72
2023/12/21 10:35:24;;;;;;;1.90;0.70;;;;;;;6.55;94.29;98232.16;4916651;29;20076;-72
2023/12/21 10:37:51;;;;;;;1.23;0.50;;;;;;;6.62;93.81;98219.66;4916455;29;20052;-72
2023/12/21 10:40:18;;;;;;;1.05;0.50;;;;;;;6.59;94.24;98225.38;4916677;29;20056;-73
2023/12/21 10:42:47;;;;;;;1.63;0.65;;;;;;;6.64;94.07;98218.50;4915974;29;20052;-73
2023/12/21 10:45:16;;;;;;;1.00;0.40;;;;;;;6.56;94.04;98188.03;4915134;29;20135;-74
2023/12/21 10:48:05;;;;;;;0.95;0.50;;;;;;;6.61;93.64;98174.88;4914911;29;20528;-73
2023/12/21 10:50:34;;;;;;;2.58;0.60;;;;;;;6.58;94.17;98186.00;4914204;29;20048;-72
2023/12/21 10:53:02;;;;;;;7.25;1.48;;;;;;;6.76;93.25;98167.75;4914798;29;20048;-73
2023/12/21 10:55:30;;;;;;;0.77;0.60;;;;;;;6.74;93.29;98136.63;4914788;29;20066;-73
2023/12/21 10:58:00;;;;;;;1.30;0.50;;;;;;;6.64;93.86;98140.38;4914464;29;20135;-74
2023/12/21 11:00:27;;;;;;;1.20;0.70;;;;;;;6.70;93.25;98125.34;4920253;29;20111;-74
2023/12/21 11:02:58;;;;;;;1.38;1.10;;;;;;;6.73;93.32;98135.81;4932821;29;20095;-75
2023/12/21 11:48:32;;;;;;;0.30;0.30;;;;;;;6.98;93.02;97993.66;4937669;28;20080;-73
2023/12/21 11:51:03;;;;;;;0.52;0.40;;;;;;;7.00;93.64;97986.25;4938685;29;20141;-72
2023/12/21 11:53:29;;;;;;;0.95;0.60;;;;;;;7.04;93.29;97954.41;4930885;29;20066;-73
2023/12/21 11:56:14;;;;;;;3.92;0.80;;;;;;;6.97;93.84;97952.41;4919981;29;20080;-72
2023/12/21 11:58:41;;;;;;;1.65;0.90;;;;;;;7.00;93.70;97944.00;4916936;29;20052;-73
2023/12/21 12:01:21;;;;;;;1.98;0.93;;;;;;;7.00;93.85;97937.72;4916885;29;20079;-74
2023/12/21 12:03:51;;;;;;;1.17;0.40;;;;;;;7.04;93.97;97927.44;4917089;29;20156;-72
2023/12/21 12:06:19;;;;;;;0.52;0.22;;;;;;;6.99;93.77;97936.91;4916254;29;20156;-74
2023/12/21 12:08:46;;;;;;;1.55;0.82;;;;;;;7.02;94.10;97918.72;4917565;29;20066;-73
2023/12/21 12:11:13;;;;;;;4.53;0.50;;;;;;;6.98;94.35;97919.06;4917208;29;20520;-74
2023/12/21 12:13:42;;;;;;;1.63;0.63;;;;;;;7.00;94.67;97905.41;4917507;29;20052;-72
2023/12/21 12:16:08;;;;;;;0.50;0.32;;;;;;;7.07;93.87;97890.16;4916207;29;20052;-74
2023/12/21 12:18:36;;;;;;;1.33;0.55;;;;;;;6.98;94.94;97886.72;4916978;29;20605;-73
2023/12/21 12:21:03;;;;;;;0.73;0.43;;;;;;;7.09;94.10;97885.44;4917655;29;20421;-73
2023/12/21 12:23:30;;;;;;;0.93;0.50;;;;;;;7.11;94.18;97869.09;4936510;29;20048;-74
2023/12/21 12:25:56;;;;;;;1.55;0.40;;;;;;;7.10;94.56;97867.44;4935958;29;20103;-74